Lake Toxaway, NC

4:07 AM EST on November 23, 2014 (GMT -0500)
Rocky Mountain | Change Station
CLOSE
Current Station
Personal Weather Station
Location: Lake Toxaway, NC
Elevation: 3245 ft
Nearby Weather Stations

Elev 3245 ft 35.14 °N, 82.92 °W | Updated 74 days ago

Rain
Rain
42 °F
Feels Like 42 °F
N
4
Wind Variable Wind from East
Gusts 6 mph

Today
High -- | Low -- °F
--% Chance of Precip.
Yesterday
High -- | Low -- °F
Precip. -- in
7:14 AM 5:21 PM
New Moon, 1% visible
Pressure 30.22 in
Visibility 10.0 miles
Clouds
Dew Point 33 °F
Humidity 68%
Rainfall 0.39 in
Snow Depth Not available.
UV Not available.
Pollen .30 out of 12
Air Quality Not available.
Flu Activity Not available.
METAR K1A5 230855Z AUTO 00000KT 10SM -RA 07/00 A3022 RMK AO2 T00651005

More Conditions Fewer Conditions

Pressure 30.22 in
Visibility 10.0 miles
Clouds
Dew Point 33 °F
Humidity 68%
Rainfall 0.39 in
Snow Depth Not available.
UV Not available.
Pollen .30 out of 12
Air Quality Not available.
Flu Activity Not available.
METAR K1A5 230855Z AUTO 00000KT 10SM -RA 07/00 A3022 RMK AO2 T00651005

More Conditions Fewer Conditions

10-Day Weather Forecast

Almanac

Astronomy

Nov. 23, 2014 Rise Set
Actual Time
Civil Twilight
Nautical Twilight
Astronomical Twilight
Moon
Length of Visible Light
Length of Day
Tomorrow will be .
, % of the Moon is Illuminated

Today's Extremes

State Highs State Lows

Community

WunderPhotos

Upload Photos

1,773,024 photos uploaded!

WunderBlogs® & News

Nearby

Air Quality

  Air Quality AQ Index Pollutant
Not available.

Snow Depth

Station Depth Elevation

Earthquake Activity

City Distance Mag. Time & Date
Minimum magnitude displayed is 2.5.

Coastal Water Temperatures

Place Temperature

Nearby Weather Stations